Details From LJLJ - Ljubljana
To LJPZ - Portoroz
Flight Number -
Tags Decoded
Created
Modified
Stats Distance 58 nm / 107 km
Max Altitude 1,000 ft / 305 m
Waypoints 4
Social Downloads 0
Likes 0
Share VATSIM

Download

Looking for another format? Having issues loading an existing format? Contact us
Advertisement - Login to hide

Notes

Decoded

Route

LJLJ REBRO NANIS LJPZ

ID Type Via Altitude Latitude Longitude Leg Dist Tot Dist Heading (true) Name
O LJLJ APT - 0 ft / 0 m 46.23249˚ 14.44039˚ - 0 nm - -
REBRO FIX - 1,000 ft / 305 m 46.11284˚ 14.37304˚ 7 nm 7 nm 201° / 201° -
NANIS FIX - 1,000 ft / 305 m 45.79099˚ 14.03297˚ 23 nm 31 nm 216° / 216° -
O LJPZ APT - 0 ft / 0 m 45.47718˚ 13.61198˚ 25 nm 57 nm 223° / 223° -

Altitude Profile

Advertisement - Login to hide

LJLJ

Details ICAO LJLJ (LJU)
Name LJUBLJANA
Region Slovenia
Timezone Europe/Ljubljana (UTC+1.0)
Stats Elevation 1,273 ft / 388 m (AMSL)
Location 46.223685° 14.457608°
Runways 1
Magnetic Variation 3.661° E

METAR

LJLJ 122200Z VRB01KT 9999 BKN033 OVC100 06/06 Q1013 NOSIG

Decode

TAF

TAF LJLJ 122000Z 1221/1321 27004KT 9999 SCT040 OVC100 TEMPO 1221/1303 10003KT -RA BKN035 OVC060 BECMG 1303/1305 10005KT 7000 RASN BKN010 OVC020 BECMG 1305/1307 3500 SN TEMPO 1306/1311 10010KT 0800 VV005 BECMG 1312/1315 7000 NSW TEMPO 1315/1321 SCT010 OVC020

Decode

Departure Runways

ID Width Length Bearing (true) Bearing (mag) Surface Threshold Offset Overrun Length
13 148 ft / 45 m 10,811 ft / 3,295 m 126.47° 122.81° Asphalt 0 ft / 0 m 0 ft / 0 m
31 148 ft / 45 m 10,811 ft / 3,295 m 306.49° 302.83° Asphalt 0 ft / 0 m 0 ft / 0 m

LJPZ

Details ICAO LJPZ (POW)
Name PORTOROZ
Region Slovenia
Timezone Europe/Ljubljana (UTC+1.0)
Stats Elevation 7 ft / 2 m (AMSL)
Location 45.472445° 13.615681°
Runways 1
Magnetic Variation 3.443° E

METAR

LJPZ 122200Z AUTO 13006KT 9999 NSC 10/06 Q1014

Decode

TAF

Not found

Destination Runways

ID Width Length Bearing (true) Bearing (mag) Surface Threshold Offset Overrun Length
15 98 ft / 30 m 3,939 ft / 1,201 m 151.28° 147.84° Asphalt 0 ft / 0 m 0 ft / 0 m
33 98 ft / 30 m 3,939 ft / 1,201 m 331.29° 327.85° Asphalt 751 ft / 229 m 0 ft / 0 m

Popular Alternatives